createdAt,value
2022-09-25T00:00:20.016Z,47.50
2022-09-25T00:01:20.067Z,50.80
2022-09-25T00:02:20.060Z,46.90
2022-09-25T00:03:19.985Z,47.10
2022-09-25T00:04:19.978Z,46.60
2022-09-25T00:05:19.968Z,51.20
2022-09-25T00:06:19.958Z,53.50
2022-09-25T00:07:19.967Z,47.20
2022-09-25T00:08:19.953Z,50.40
2022-09-25T00:09:19.926Z,51.10
2022-09-25T00:10:19.922Z,47.60
2022-09-25T00:11:19.904Z,46.40
2022-09-25T00:12:19.918Z,46.80
2022-09-25T00:13:19.871Z,52.50
2022-09-25T00:14:19.873Z,48.80
2022-09-25T00:15:19.849Z,50.00
2022-09-25T00:16:19.912Z,48.40
2022-09-25T00:17:19.840Z,50.10
2022-09-25T00:18:19.833Z,50.20
2022-09-25T00:19:19.802Z,50.30
2022-09-25T00:20:19.800Z,51.60
2022-09-25T00:21:19.783Z,52.70
2022-09-25T00:22:19.821Z,50.90
2022-09-25T00:23:19.788Z,49.30
2022-09-25T00:24:19.751Z,51.30
2022-09-25T00:25:19.744Z,52.10
2022-09-25T00:26:19.742Z,48.50
2022-09-25T00:27:19.744Z,50.30
2022-09-25T00:28:19.714Z,47.80
2022-09-25T00:29:19.702Z,46.50
2022-09-25T00:30:19.691Z,47.40
2022-09-25T00:31:19.723Z,47.70
2022-09-25T00:32:19.703Z,48.00
2022-09-25T00:33:19.654Z,46.40
2022-09-25T00:34:19.664Z,47.90
2022-09-25T00:35:19.633Z,51.40
2022-09-25T00:36:19.628Z,48.00
2022-09-25T00:37:19.644Z,47.80
2022-09-25T00:38:19.603Z,48.20
2022-09-25T00:39:19.594Z,47.20
2022-09-25T00:40:19.616Z,49.70
2022-09-25T00:41:19.570Z,47.50
2022-09-25T00:42:19.566Z,51.50
2022-09-25T00:43:19.546Z,47.90
2022-09-25T00:44:19.558Z,43.90
2022-09-25T00:45:19.516Z,46.50
2022-09-25T00:46:19.591Z,45.20
2022-09-25T00:47:19.522Z,47.60
2022-09-25T00:48:19.487Z,46.90
2022-09-25T00:49:19.482Z,45.60
2022-09-25T00:50:19.479Z,44.20
2022-09-25T00:51:19.448Z,47.60
2022-09-25T00:52:19.477Z,46.70
2022-09-25T00:53:19.487Z,48.40
2022-09-25T00:54:19.435Z,45.60
2022-09-25T00:55:19.428Z,46.90
2022-09-25T00:56:19.398Z,51.80
2022-09-25T00:57:19.400Z,47.20
2022-09-25T00:58:19.379Z,50.90
2022-09-25T00:59:19.398Z,49.70
2022-09-25T01:00:19.368Z,48.70
2022-09-25T01:01:19.395Z,49.90
2022-09-25T01:02:19.462Z,45.40
2022-09-25T01:03:19.329Z,50.30
2022-09-25T01:04:19.319Z,46.60
2022-09-25T01:05:19.310Z,48.70
2022-09-25T01:06:19.292Z,44.60
2022-09-25T01:07:19.300Z,50.10
2022-09-25T01:08:19.288Z,52.20
2022-09-25T01:09:19.262Z,47.90
2022-09-25T01:10:19.262Z,47.60
2022-09-25T01:11:19.241Z,48.70
2022-09-25T01:12:19.262Z,43.30
2022-09-25T01:13:19.222Z,46.20
2022-09-25T01:14:19.233Z,45.60
2022-09-25T01:15:19.223Z,46.90
2022-09-25T01:16:19.285Z,46.50
2022-09-25T01:17:19.203Z,45.20
2022-09-25T01:18:19.177Z,45.70
2022-09-25T01:19:19.172Z,47.60
2022-09-25T01:20:19.152Z,47.20
2022-09-25T01:21:19.138Z,50.50
2022-09-25T01:22:19.138Z,46.30
2022-09-25T01:23:19.116Z,51.00
2022-09-25T01:24:19.127Z,45.60
2022-09-25T01:25:19.094Z,48.80
2022-09-25T01:26:19.081Z,48.10
2022-09-25T01:27:19.075Z,54.60
2022-09-25T01:28:19.066Z,48.80
2022-09-25T01:29:19.056Z,50.60
2022-09-25T01:30:19.027Z,54.00
2022-09-25T01:31:19.073Z,47.50
2022-09-25T01:32:19.013Z,47.40
2022-09-25T01:33:19.017Z,48.20
2022-09-25T01:34:18.996Z,48.80
2022-09-25T01:35:19.038Z,48.20
2022-09-25T01:36:18.967Z,51.70
2022-09-25T01:37:18.957Z,49.50
2022-09-25T01:38:18.968Z,50.40
2022-09-25T01:39:18.968Z,51.10
2022-09-25T01:40:18.983Z,49.20
2022-09-25T01:41:18.923Z,51.70
2022-09-25T01:42:18.948Z,49.80
2022-09-25T01:43:18.907Z,51.90
2022-09-25T01:44:18.888Z,48.50
2022-09-25T01:45:18.870Z,50.70
2022-09-25T01:46:18.936Z,51.20
2022-09-25T01:47:18.850Z,51.40
2022-09-25T01:48:18.861Z,45.90
2022-09-25T01:49:18.829Z,51.30
2022-09-25T01:50:18.822Z,52.10
2022-09-25T01:51:18.803Z,48.60
2022-09-25T01:52:18.805Z,47.10
2022-09-25T01:53:18.951Z,47.00
2022-09-25T01:54:18.856Z,48.10
2022-09-25T01:55:18.775Z,52.10
2022-09-25T01:56:18.807Z,48.40
2022-09-25T01:57:18.813Z,51.10
2022-09-25T01:58:18.742Z,49.40
2022-09-25T01:59:18.729Z,47.50
2022-09-25T02:00:18.732Z,50.20
2022-09-25T02:01:18.757Z,47.30
2022-09-25T02:02:18.894Z,46.20
2022-09-25T02:03:18.822Z,52.60
2022-09-25T02:04:19.242Z,52.10
2022-09-25T02:05:18.785Z,50.20
2022-09-25T02:06:18.739Z,52.50
2022-09-25T02:07:18.635Z,51.60
2022-09-25T02:08:18.643Z,51.30
2022-09-25T02:09:18.606Z,53.80
2022-09-25T02:10:18.646Z,51.20
2022-09-25T02:11:18.585Z,54.70
2022-09-25T02:12:18.675Z,52.30
2022-09-25T02:13:18.585Z,56.50
2022-09-25T02:14:18.566Z,56.30
2022-09-25T02:15:18.545Z,60.00
2022-09-25T02:16:18.641Z,55.10
2022-09-25T02:17:18.536Z,55.40
2022-09-25T02:18:18.597Z,55.60
2022-09-25T02:19:18.506Z,57.40
2022-09-25T02:20:18.537Z,60.30
2022-09-25T02:21:18.477Z,55.90
2022-09-25T02:22:18.477Z,54.50
2022-09-25T02:23:18.477Z,56.30
2022-09-25T02:24:18.453Z,56.00
2022-09-25T02:25:18.439Z,57.90
2022-09-25T02:26:18.456Z,55.30
2022-09-25T02:27:18.428Z,60.20
2022-09-25T02:28:18.548Z,56.30
2022-09-25T02:29:18.494Z,53.90
2022-09-25T02:30:18.385Z,56.00
2022-09-25T02:31:18.393Z,55.90
2022-09-25T02:32:18.390Z,56.50
2022-09-25T02:33:18.359Z,58.90
2022-09-25T02:34:18.473Z,58.60
2022-09-25T02:35:18.330Z,56.10
2022-09-25T02:36:18.321Z,56.70
2022-09-25T02:37:18.301Z,60.10
2022-09-25T02:38:18.313Z,58.30
2022-09-25T02:39:18.279Z,54.90
2022-09-25T02:40:18.384Z,54.80
2022-09-25T02:41:18.261Z,56.00
2022-09-25T02:42:18.253Z,61.90
2022-09-25T02:43:18.251Z,61.10
2022-09-25T02:44:18.319Z,58.00
2022-09-25T02:45:18.221Z,59.90
2022-09-25T02:46:18.261Z,58.70
2022-09-25T02:47:18.212Z,56.70
2022-09-25T02:48:18.193Z,58.00
2022-09-25T02:49:18.173Z,54.80
2022-09-25T02:50:18.171Z,58.80
2022-09-25T02:51:18.160Z,56.60
2022-09-25T02:52:18.145Z,55.80
2022-09-25T02:53:18.143Z,60.90
2022-09-25T02:54:18.116Z,59.00
2022-09-25T02:55:18.104Z,56.90
2022-09-25T02:56:18.103Z,55.60
2022-09-25T02:57:18.086Z,59.20
2022-09-25T02:58:18.098Z,56.10
2022-09-25T02:59:18.064Z,57.40
2022-09-25T03:00:18.054Z,60.60
2022-09-25T03:01:18.098Z,52.70
2022-09-25T03:02:18.094Z,57.00
2022-09-25T03:03:18.025Z,54.10
2022-09-25T03:04:18.015Z,54.90
2022-09-25T03:05:17.997Z,54.90
2022-09-25T03:06:17.998Z,54.90
2022-09-25T03:07:17.988Z,57.60
2022-09-25T03:08:17.995Z,55.40
2022-09-25T03:09:17.960Z,54.70
2022-09-25T03:10:17.947Z,58.90
2022-09-25T03:11:17.929Z,54.80
2022-09-25T03:12:17.927Z,54.60
2022-09-25T03:13:17.929Z,52.80
2022-09-25T03:14:17.899Z,57.50
2022-09-25T03:15:17.897Z,57.70
2022-09-25T03:16:17.983Z,54.30
2022-09-25T03:17:17.871Z,54.40
2022-09-25T03:18:17.922Z,53.80
2022-09-25T03:19:17.842Z,55.40
2022-09-25T03:20:17.860Z,50.10
2022-09-25T03:21:17.829Z,54.20
2022-09-25T03:22:17.832Z,55.20
2022-09-25T03:23:17.821Z,52.90
2022-09-25T03:24:17.800Z,56.80
2022-09-25T03:25:17.781Z,52.80
2022-09-25T03:26:17.770Z,55.40
2022-09-25T03:27:17.765Z,56.10
2022-09-25T03:28:17.772Z,54.10
2022-09-25T03:29:17.755Z,49.30
2022-09-25T03:30:17.792Z,54.00
2022-09-25T03:31:17.742Z,53.40
2022-09-25T03:32:17.715Z,57.50
2022-09-25T03:33:17.694Z,52.00
2022-09-25T03:34:17.694Z,56.20
2022-09-25T03:35:17.674Z,55.70
2022-09-25T03:36:17.722Z,58.90
2022-09-25T03:37:17.669Z,59.50
2022-09-25T03:38:17.654Z,54.60
2022-09-25T03:39:17.650Z,54.90
2022-09-25T03:40:17.690Z,54.60
2022-09-25T03:41:17.623Z,54.60
2022-09-25T03:42:17.594Z,50.50
2022-09-25T03:43:48.855Z,59.50
2022-09-25T03:44:48.804Z,58.70
2022-09-25T03:45:48.893Z,54.40
2022-09-25T03:46:48.795Z,54.30
2022-09-25T03:47:48.797Z,51.20
2022-09-25T03:48:48.774Z,50.80
2022-09-25T03:49:48.764Z,51.20
2022-09-25T03:50:48.778Z,54.40
2022-09-25T03:51:48.748Z,49.00
2022-09-25T03:52:48.725Z,50.70
2022-09-25T03:53:48.728Z,51.30
2022-09-25T03:54:48.697Z,51.30
2022-09-25T03:55:48.706Z,55.10
2022-09-25T03:56:48.679Z,52.30
2022-09-25T03:57:48.666Z,48.90
2022-09-25T03:58:48.667Z,49.40
2022-09-25T03:59:48.658Z,48.80
2022-09-25T04:00:48.638Z,49.80
2022-09-25T04:01:48.669Z,48.00
2022-09-25T04:02:48.702Z,49.10
2022-09-25T04:03:48.617Z,43.90
2022-09-25T04:04:48.589Z,49.00
2022-09-25T04:05:48.590Z,48.10
2022-09-25T04:06:48.577Z,46.50
2022-09-25T04:07:48.567Z,41.20
2022-09-25T04:08:48.561Z,40.10
2022-09-25T04:09:48.539Z,44.50
2022-09-25T04:10:48.529Z,38.50
2022-09-25T04:11:48.522Z,42.60
2022-09-25T04:12:48.500Z,38.80
2022-09-25T04:13:48.511Z,37.40
2022-09-25T04:14:48.484Z,38.10
2022-09-25T04:15:48.471Z,35.00
2022-09-25T04:16:48.505Z,38.20
2022-09-25T04:17:48.454Z,38.70
2022-09-25T04:18:48.526Z,37.00
2022-09-25T04:19:48.432Z,34.70
2022-09-25T04:20:48.422Z,33.90
2022-09-25T04:21:48.463Z,38.40
2022-09-25T04:22:48.413Z,41.60
2022-09-25T04:23:48.393Z,34.90
2022-09-25T04:24:48.362Z,30.70
2022-09-25T04:25:48.374Z,34.40
2022-09-25T04:26:48.495Z,34.20
2022-09-25T04:27:48.333Z,33.20
2022-09-25T04:28:48.346Z,34.30
2022-09-25T04:29:48.334Z,34.20
2022-09-25T04:30:48.304Z,30.40
2022-09-25T04:31:48.419Z,30.60
2022-09-25T04:32:48.305Z,34.80
2022-09-25T04:33:48.497Z,33.20
2022-09-25T04:34:48.414Z,30.10
2022-09-25T04:35:48.255Z,34.20
2022-09-25T04:36:48.296Z,28.70
2022-09-25T04:37:48.279Z,30.20
2022-09-25T04:38:48.232Z,32.20
2022-09-25T04:39:48.206Z,28.70
2022-09-25T04:40:48.232Z,28.00
2022-09-25T04:41:48.195Z,25.40
2022-09-25T04:42:48.246Z,28.70
2022-09-25T04:43:48.177Z,33.60
2022-09-25T04:44:48.237Z,30.80
2022-09-25T04:45:48.233Z,31.70
2022-09-25T04:46:48.165Z,29.30
2022-09-25T04:47:48.120Z,31.40
2022-09-25T04:48:48.139Z,29.00
2022-09-25T04:49:48.098Z,32.70
2022-09-25T04:50:48.081Z,32.80
2022-09-25T04:51:48.129Z,30.30
2022-09-25T04:52:48.238Z,27.50
2022-09-25T04:53:48.079Z,26.40
2022-09-25T04:54:48.040Z,26.50
2022-09-25T04:55:48.033Z,33.00
2022-09-25T04:56:48.010Z,25.60
2022-09-25T04:57:58.400Z,26.80
2022-09-25T04:58:49.010Z,25.60
2022-09-25T04:59:48.001Z,26.80
2022-09-25T05:00:48.025Z,29.30
2022-09-25T05:01:48.099Z,24.00
2022-09-25T05:02:48.059Z,23.40
2022-09-25T05:03:48.047Z,24.30
2022-09-25T05:04:47.933Z,18.90
2022-09-25T05:05:47.911Z,22.60
2022-09-25T05:06:47.951Z,19.40
2022-09-25T05:07:47.892Z,17.90
2022-09-25T05:08:47.911Z,18.80
2022-09-25T05:09:47.902Z,18.10
2022-09-25T05:10:47.871Z,21.80
2022-09-25T05:11:47.867Z,21.90
2022-09-25T05:12:47.842Z,22.10
2022-09-25T05:13:47.844Z,19.30
2022-09-25T05:14:47.832Z,15.20
2022-09-25T05:15:47.825Z,21.80
2022-09-25T05:16:47.858Z,20.50
2022-09-25T05:17:47.871Z,17.90
2022-09-25T05:18:47.785Z,16.70
2022-09-25T05:19:47.765Z,13.70
2022-09-25T05:20:47.755Z,21.30
2022-09-25T05:21:47.745Z,16.30
2022-09-25T05:22:47.795Z,18.70
2022-09-25T05:23:47.736Z,18.50
2022-09-25T05:24:47.707Z,17.40
2022-09-25T05:25:47.705Z,17.60
2022-09-25T05:26:47.687Z,19.10
2022-09-25T05:27:47.665Z,15.40
2022-09-25T05:28:47.687Z,12.40
2022-09-25T05:29:47.667Z,15.00
2022-09-25T05:30:47.668Z,14.20
2022-09-25T05:31:47.693Z,15.50
2022-09-25T05:32:47.659Z,12.40
2022-09-25T05:33:47.629Z,17.90
2022-09-25T05:34:47.605Z,12.10
2022-09-25T05:35:47.589Z,18.70
2022-09-25T05:36:47.578Z,15.90
2022-09-25T05:37:47.577Z,12.50
2022-09-25T05:38:47.559Z,13.20
2022-09-25T05:39:47.553Z,14.60
2022-09-25T05:40:47.588Z,14.00
2022-09-25T05:41:47.519Z,16.30
2022-09-25T05:42:47.511Z,10.60
2022-09-25T05:43:47.521Z,15.70
2022-09-25T05:44:47.508Z,12.20
2022-09-25T05:45:47.551Z,14.10
2022-09-25T05:46:47.468Z,12.10
2022-09-25T05:47:47.461Z,15.00
2022-09-25T05:48:47.441Z,17.10
2022-09-25T05:49:47.440Z,16.30
2022-09-25T05:50:47.422Z,14.30
2022-09-25T05:51:47.400Z,11.90
2022-09-25T05:52:47.402Z,15.30
2022-09-25T05:53:47.400Z,14.00
2022-09-25T05:54:47.402Z,12.10
2022-09-25T05:55:47.373Z,13.30
2022-09-25T05:56:47.364Z,14.10
2022-09-25T05:57:47.344Z,14.20
2022-09-25T05:58:47.345Z,13.90
2022-09-25T05:59:47.334Z,17.40
2022-09-25T06:00:47.313Z,15.30
2022-09-25T06:01:47.358Z,17.10
2022-09-25T06:02:47.325Z,13.00
2022-09-25T06:03:47.425Z,14.60
2022-09-25T06:04:47.300Z,14.70
2022-09-25T06:05:47.266Z,15.70
2022-09-25T06:06:47.255Z,14.90
2022-09-25T06:07:47.235Z,18.50
2022-09-25T06:08:47.226Z,15.10
2022-09-25T06:09:47.217Z,15.90
2022-09-25T06:10:47.208Z,15.00
2022-09-25T06:11:47.250Z,16.20
2022-09-25T06:12:47.177Z,18.30
2022-09-25T06:13:51.976Z,13.50
2022-09-25T06:14:48.166Z,18.90
2022-09-25T06:15:47.177Z,16.20
2022-09-25T06:16:47.131Z,12.40
2022-09-25T06:17:47.118Z,12.50
2022-09-25T06:18:47.109Z,14.70
2022-09-25T06:19:47.121Z,14.90
2022-09-25T06:20:47.129Z,9.70
2022-09-25T06:21:47.068Z,15.30
2022-09-25T06:22:47.070Z,15.80
2022-09-25T06:23:47.062Z,13.70
2022-09-25T06:24:47.067Z,16.10
2022-09-25T06:25:47.030Z,16.30
2022-09-25T06:26:47.029Z,17.40
2022-09-25T06:27:47.011Z,10.70
2022-09-25T06:28:47.003Z,14.50
2022-09-25T06:29:47.026Z,9.00
2022-09-25T06:30:47.019Z,13.70
2022-09-25T06:31:47.052Z,13.30
2022-09-25T06:32:46.964Z,11.20
2022-09-25T06:33:46.940Z,14.60
2022-09-25T06:34:46.946Z,11.80
2022-09-25T06:35:46.925Z,14.90
2022-09-25T06:36:46.914Z,14.10
2022-09-25T06:37:46.901Z,11.70
2022-09-25T06:38:46.903Z,11.70
2022-09-25T06:39:46.883Z,13.70
2022-09-25T06:40:46.955Z,16.70
2022-09-25T06:41:46.860Z,15.80
2022-09-25T06:42:46.845Z,11.50
2022-09-25T06:43:46.843Z,13.20
2022-09-25T06:44:46.841Z,10.40
2022-09-25T06:45:46.859Z,11.70
2022-09-25T06:46:46.841Z,14.40
2022-09-25T06:47:46.794Z,11.10
2022-09-25T06:48:46.775Z,13.40
2022-09-25T06:49:46.784Z,12.60
2022-09-25T06:50:46.765Z,14.90
2022-09-25T06:51:46.871Z,11.90
2022-09-25T06:52:46.765Z,15.50
2022-09-25T06:53:46.838Z,8.80
2022-09-25T06:54:46.721Z,12.70
2022-09-25T06:55:46.786Z,14.20
2022-09-25T06:56:46.696Z,10.00
2022-09-25T06:57:46.696Z,10.60
2022-09-25T06:58:46.689Z,11.30
2022-09-25T06:59:46.688Z,9.10
2022-09-25T07:00:46.647Z,11.50
2022-09-25T07:01:46.698Z,14.20
2022-09-25T07:02:46.697Z,11.70
2022-09-25T07:03:46.652Z,16.10
2022-09-25T07:04:46.618Z,14.60
2022-09-25T07:05:46.589Z,13.60
2022-09-25T07:06:46.581Z,9.80
2022-09-25T07:07:46.569Z,10.50
2022-09-25T07:08:46.558Z,12.80
2022-09-25T07:09:46.625Z,12.50
2022-09-25T07:10:46.653Z,13.50
2022-09-25T07:11:46.540Z,14.10
2022-09-25T07:12:46.517Z,14.20
2022-09-25T07:13:46.588Z,9.70
2022-09-25T07:14:46.504Z,13.90
2022-09-25T07:15:46.498Z,7.40
2022-09-25T07:16:46.481Z,13.20
2022-09-25T07:17:46.471Z,16.10
2022-09-25T07:18:46.443Z,12.70
2022-09-25T07:19:46.461Z,11.30
2022-09-25T07:20:46.437Z,15.90
2022-09-25T07:21:46.420Z,12.10
2022-09-25T07:22:46.402Z,12.90
2022-09-25T07:23:46.402Z,12.60
2022-09-25T07:24:46.402Z,11.10
2022-09-25T07:25:46.379Z,12.80
2022-09-25T07:26:46.362Z,12.40
2022-09-25T07:27:46.351Z,11.00
2022-09-25T07:28:46.364Z,12.10
2022-09-25T07:29:46.354Z,11.00
2022-09-25T07:30:46.338Z,13.80
2022-09-25T07:31:46.314Z,15.70
2022-09-25T07:32:46.365Z,11.60
2022-09-25T07:33:46.292Z,10.60
2022-09-25T07:34:46.286Z,11.60
2022-09-25T07:35:46.264Z,14.20
2022-09-25T07:36:46.247Z,13.20
2022-09-25T07:37:46.256Z,15.00
2022-09-25T07:38:46.251Z,15.90
2022-09-25T07:39:46.226Z,12.80
2022-09-25T07:40:46.242Z,13.20
2022-09-25T07:41:46.251Z,17.20
2022-09-25T07:42:46.184Z,12.90
2022-09-25T07:43:46.180Z,13.60
2022-09-25T07:44:48.645Z,12.70
2022-09-25T07:45:46.160Z,13.90
2022-09-25T07:46:46.569Z,13.20
2022-09-25T07:47:46.150Z,7.70
2022-09-25T07:48:46.117Z,10.50
2022-09-25T07:49:46.120Z,13.30
2022-09-25T07:50:46.108Z,15.20
2022-09-25T07:51:46.088Z,11.10
2022-09-25T07:52:46.080Z,11.80
2022-09-25T07:53:46.060Z,10.90
2022-09-25T07:54:46.080Z,13.90
2022-09-25T07:55:46.071Z,7.80
2022-09-25T07:56:46.062Z,18.00
2022-09-25T07:57:46.026Z,20.10
2022-09-25T07:58:46.003Z,13.70
2022-09-25T07:59:46.012Z,14.00
2022-09-25T08:00:45.991Z,11.80
2022-09-25T08:01:51.080Z,12.10
2022-09-25T08:02:47.159Z,16.50
2022-09-25T08:03:45.951Z,13.10
2022-09-25T08:04:45.942Z,15.40
2022-09-25T08:05:45.946Z,11.40
2022-09-25T08:06:45.903Z,15.30
2022-09-25T08:07:45.903Z,15.10
2022-09-25T08:08:45.884Z,14.30
2022-09-25T08:09:45.943Z,10.80
2022-09-25T08:10:45.865Z,10.70
2022-09-25T08:11:45.867Z,15.30
2022-09-25T08:12:45.845Z,9.10
2022-09-25T08:13:45.851Z,12.90
2022-09-25T08:14:45.834Z,12.60
2022-09-25T08:15:45.856Z,12.10
2022-09-25T08:16:45.805Z,10.50
2022-09-25T08:17:45.797Z,11.00
2022-09-25T08:18:45.786Z,15.60
2022-09-25T08:19:45.787Z,13.30
2022-09-25T08:20:45.851Z,9.60
2022-09-25T08:21:45.803Z,13.20
2022-09-25T08:22:45.750Z,12.50
2022-09-25T08:23:48.149Z,12.60
2022-09-25T08:24:45.745Z,13.20
2022-09-25T08:25:45.720Z,11.30
2022-09-25T08:26:45.709Z,10.80
2022-09-25T08:27:45.687Z,12.40
2022-09-25T08:28:45.681Z,15.70
2022-09-25T08:29:45.682Z,15.10
2022-09-25T08:30:45.696Z,12.90
2022-09-25T08:31:45.639Z,15.80
2022-09-25T08:32:45.620Z,14.10
2022-09-25T08:33:45.611Z,16.80
2022-09-25T08:34:45.806Z,11.60
2022-09-25T08:35:45.598Z,11.60
2022-09-25T08:36:45.581Z,13.10
2022-09-25T08:37:45.581Z,12.20
2022-09-25T08:38:45.810Z,12.60
2022-09-25T08:39:45.563Z,16.80
2022-09-25T08:40:46.673Z,12.10
2022-09-25T08:41:45.532Z,13.50
2022-09-25T08:42:45.512Z,11.50
2022-09-25T08:43:45.503Z,14.00
2022-09-25T08:45:02.455Z,17.40
2022-09-25T08:45:46.502Z,17.40
2022-09-25T08:46:45.528Z,11.00
2022-09-25T08:47:45.466Z,10.70
2022-09-25T08:48:45.550Z,14.40
2022-09-25T08:49:45.464Z,18.50
2022-09-25T08:50:45.586Z,13.90
2022-09-25T08:51:45.417Z,10.50
2022-09-25T08:52:45.407Z,14.40
2022-09-25T08:53:45.405Z,14.50
2022-09-25T08:54:45.969Z,12.40
2022-09-25T08:55:45.376Z,12.40
2022-09-25T08:56:45.447Z,15.80
2022-09-25T08:57:45.371Z,11.10
2022-09-25T08:58:45.345Z,16.00
2022-09-25T08:59:45.341Z,13.20
2022-09-25T09:00:45.309Z,9.30
2022-09-25T09:01:45.342Z,12.80
2022-09-25T09:02:45.380Z,14.10
2022-09-25T09:03:45.281Z,15.00
2022-09-25T09:04:45.287Z,12.30
2022-09-25T09:05:49.452Z,11.50
2022-09-25T09:06:49.800Z,10.00
2022-09-25T09:07:46.241Z,15.70
2022-09-25T09:08:45.230Z,10.30
2022-09-25T09:09:45.233Z,10.10
2022-09-25T09:10:45.211Z,11.10
2022-09-25T09:11:45.218Z,10.90
2022-09-25T09:12:45.181Z,15.60
2022-09-25T09:13:45.186Z,13.10
2022-09-25T09:14:45.172Z,14.20
2022-09-25T09:15:45.230Z,10.40
2022-09-25T09:16:45.147Z,9.10
2022-09-25T09:17:45.164Z,9.40
2022-09-25T09:18:45.119Z,9.40
2022-09-25T09:19:45.122Z,11.30
2022-09-25T09:20:45.095Z,13.40
2022-09-25T09:21:45.116Z,12.10
2022-09-25T09:22:45.098Z,10.60
2022-09-25T09:23:45.068Z,9.60
2022-09-25T09:24:45.066Z,12.30
2022-09-25T09:25:45.046Z,10.90
2022-09-25T09:26:45.066Z,11.30
2022-09-25T09:27:45.030Z,14.70
2022-09-25T09:28:45.020Z,11.50
2022-09-25T09:29:45.008Z,12.20
2022-09-25T09:30:45.011Z,9.20
2022-09-25T09:31:44.969Z,9.30
2022-09-25T09:32:44.970Z,10.00
2022-09-25T09:33:44.950Z,10.80
2022-09-25T09:35:45.940Z,12.30
2022-09-25T09:36:44.921Z,9.10
2022-09-25T09:37:44.927Z,10.00
2022-09-25T09:38:44.902Z,8.40
2022-09-25T09:39:44.893Z,7.00
2022-09-25T09:40:44.959Z,7.90
2022-09-25T09:41:44.873Z,15.60
2022-09-25T09:42:44.852Z,7.00
2022-09-25T09:43:44.852Z,10.00
2022-09-25T09:44:44.843Z,9.00
2022-09-25T09:45:44.822Z,11.30
2022-09-25T09:46:44.825Z,11.90
2022-09-25T09:47:44.814Z,14.60
2022-09-25T09:48:44.796Z,14.50
2022-09-25T09:49:44.795Z,8.30
2022-09-25T09:50:49.859Z,7.80
2022-09-25T09:51:45.756Z,9.90
2022-09-25T09:52:44.766Z,13.70
2022-09-25T09:53:44.737Z,9.10
2022-09-25T09:54:44.727Z,13.60
2022-09-25T09:55:44.817Z,9.50
2022-09-25T09:56:44.710Z,9.30
2022-09-25T09:57:44.699Z,10.90
2022-09-25T09:58:44.679Z,11.00
2022-09-25T09:59:44.690Z,10.50
2022-09-25T10:00:44.654Z,8.40
2022-09-25T10:01:44.688Z,9.40
2022-09-25T10:02:44.725Z,12.10
2022-09-25T10:03:44.622Z,8.80
2022-09-25T10:04:44.622Z,10.30
2022-09-25T10:05:44.611Z,10.10
2022-09-25T10:06:44.601Z,6.30
2022-09-25T10:07:44.601Z,9.50
2022-09-25T10:08:44.562Z,10.10
2022-09-25T10:09:44.583Z,10.00
2022-09-25T10:10:44.552Z,11.50
2022-09-25T10:11:44.649Z,9.40
2022-09-25T10:12:44.536Z,11.60
2022-09-25T10:13:44.546Z,8.60
2022-09-25T10:14:44.549Z,10.70
2022-09-25T10:15:44.502Z,10.30
2022-09-25T10:16:44.495Z,8.20
2022-09-25T10:17:44.475Z,7.80
2022-09-25T10:18:44.456Z,9.20
2022-09-25T10:19:44.466Z,7.10
2022-09-25T10:20:44.446Z,7.00
2022-09-25T10:21:44.443Z,7.10
2022-09-25T10:22:44.428Z,13.50
2022-09-25T10:23:44.407Z,8.60
2022-09-25T10:24:44.401Z,11.40
2022-09-25T10:25:44.393Z,9.90
2022-09-25T10:26:44.376Z,10.00
2022-09-25T10:27:44.360Z,11.90
2022-09-25T10:28:44.360Z,11.20
2022-09-25T10:29:44.354Z,9.50
2022-09-25T10:30:44.333Z,12.30
2022-09-25T10:31:44.326Z,9.30
2022-09-25T10:32:44.302Z,6.60
2022-09-25T10:33:44.291Z,10.90
2022-09-25T10:34:44.442Z,8.90
2022-09-25T10:35:44.282Z,9.00
2022-09-25T10:36:44.277Z,6.40
2022-09-25T10:37:44.253Z,7.80
2022-09-25T10:38:44.233Z,5.70
2022-09-25T10:39:45.746Z,10.10
2022-09-25T10:40:44.317Z,8.10
2022-09-25T10:41:44.228Z,9.20
2022-09-25T10:42:44.194Z,9.40
2022-09-25T10:43:44.194Z,6.10
2022-09-25T10:44:44.205Z,8.30
2022-09-25T10:45:44.196Z,5.90
2022-09-25T10:46:44.155Z,7.90
2022-09-25T10:47:44.157Z,8.30
2022-09-25T10:48:44.127Z,9.30
2022-09-25T10:49:44.135Z,9.20
2022-09-25T10:50:44.133Z,11.50
2022-09-25T10:51:44.273Z,9.50
2022-09-25T10:52:44.087Z,7.00
2022-09-25T10:53:44.083Z,5.70
2022-09-25T10:54:45.843Z,6.80
2022-09-25T10:55:44.087Z,8.40
2022-09-25T10:56:44.106Z,6.80
2022-09-25T10:57:44.029Z,6.90
2022-09-25T10:58:44.030Z,7.60
2022-09-25T10:59:44.166Z,11.80
2022-09-25T11:00:43.993Z,9.00
2022-09-25T11:01:44.224Z,10.10
2022-09-25T11:02:44.012Z,6.90
2022-09-25T11:03:43.962Z,5.60
2022-09-25T11:04:43.993Z,6.30
2022-09-25T11:05:43.952Z,6.90
2022-09-25T11:06:43.923Z,6.80
2022-09-25T11:07:43.976Z,8.10
2022-09-25T11:08:43.915Z,11.40
2022-09-25T11:09:44.052Z,6.40
2022-09-25T11:10:43.896Z,8.90
2022-09-25T11:11:43.905Z,7.50
2022-09-25T11:12:43.865Z,12.20
2022-09-25T11:13:43.864Z,5.70
2022-09-25T11:14:43.880Z,8.00
2022-09-25T11:15:43.836Z,10.30
2022-09-25T11:16:43.858Z,6.00
2022-09-25T11:17:43.928Z,8.10
2022-09-25T11:18:43.799Z,10.40
2022-09-25T11:19:43.827Z,7.00
2022-09-25T11:20:43.777Z,9.80
2022-09-25T11:21:43.780Z,9.30
2022-09-25T11:22:43.758Z,7.80
2022-09-25T11:23:43.748Z,8.50
2022-09-25T11:24:43.968Z,6.60
2022-09-25T11:25:43.736Z,8.40
2022-09-25T11:26:43.731Z,4.80
2022-09-25T11:27:43.718Z,7.10
2022-09-25T11:28:43.691Z,8.70
2022-09-25T11:29:43.721Z,8.60
2022-09-25T11:30:43.703Z,8.50
2022-09-25T11:31:43.663Z,9.80
2022-09-25T11:32:45.783Z,6.80
2022-09-25T11:33:44.633Z,6.30
2022-09-25T11:34:43.644Z,6.40
2022-09-25T11:35:43.636Z,8.30
2022-09-25T11:36:43.603Z,5.30
2022-09-25T11:37:43.613Z,5.90
2022-09-25T11:38:43.585Z,4.70
2022-09-25T11:39:43.586Z,5.80
2022-09-25T11:40:43.687Z,7.10
2022-09-25T11:41:43.568Z,5.20
2022-09-25T11:42:43.539Z,6.00
2022-09-25T11:43:43.529Z,7.00
2022-09-25T11:44:43.541Z,6.40
2022-09-25T11:45:43.568Z,8.30
2022-09-25T11:46:43.498Z,6.70
2022-09-25T11:47:43.499Z,6.50
2022-09-25T11:48:43.467Z,6.50
2022-09-25T11:49:43.479Z,6.20
2022-09-25T11:50:43.450Z,7.80
2022-09-25T11:51:43.465Z,8.60
2022-09-25T11:52:43.430Z,5.80
2022-09-25T11:53:43.421Z,8.50
2022-09-25T11:54:43.421Z,7.00
2022-09-25T11:55:43.822Z,7.10
2022-09-25T11:56:43.393Z,6.90
2022-09-25T11:57:43.387Z,7.30
2022-09-25T11:58:43.403Z,5.80
2022-09-25T11:59:43.374Z,6.60
2022-09-25T12:00:43.344Z,5.90
2022-09-25T12:01:43.398Z,5.40
2022-09-25T12:02:43.455Z,5.60
2022-09-25T12:03:43.351Z,7.20
2022-09-25T12:04:43.316Z,6.40
2022-09-25T12:05:43.297Z,6.60
2022-09-25T12:06:43.276Z,4.10
2022-09-25T12:07:43.267Z,5.00
2022-09-25T12:08:43.330Z,5.90
2022-09-25T12:09:43.263Z,5.70
2022-09-25T12:10:44.052Z,6.00
2022-09-25T12:11:43.231Z,6.40
2022-09-25T12:12:43.212Z,5.30
2022-09-25T12:13:43.209Z,5.00
2022-09-25T12:14:43.213Z,5.20
2022-09-25T12:15:43.179Z,5.90
2022-09-25T12:16:43.239Z,6.40
2022-09-25T12:17:43.183Z,3.70
2022-09-25T12:18:43.141Z,5.40
2022-09-25T12:19:43.153Z,7.90
2022-09-25T12:20:43.123Z,4.80
2022-09-25T12:21:43.114Z,5.20
2022-09-25T12:22:43.104Z,8.30
2022-09-25T12:23:43.095Z,1.40
2022-09-25T12:24:43.084Z,6.00
2022-09-25T12:25:43.076Z,5.20
2022-09-25T12:26:43.062Z,5.60
2022-09-25T12:27:43.047Z,3.40
2022-09-25T12:28:43.036Z,3.80
2022-09-25T12:29:43.038Z,5.60
2022-09-25T12:30:43.041Z,6.20
2022-09-25T12:31:43.009Z,4.50
2022-09-25T12:32:43.019Z,7.00
2022-09-25T12:33:42.990Z,6.00
2022-09-25T12:34:42.990Z,6.40
2022-09-25T12:35:42.979Z,4.90
2022-09-25T12:36:42.958Z,4.10
2022-09-25T12:37:42.980Z,8.10
2022-09-25T12:38:42.931Z,7.20
2022-09-25T12:39:42.929Z,5.90
2022-09-25T12:40:43.071Z,7.00
2022-09-25T12:41:42.901Z,4.70
2022-09-25T12:42:42.881Z,6.10
2022-09-25T12:43:42.874Z,5.60
2022-09-25T12:44:42.883Z,7.70
2022-09-25T12:45:42.909Z,5.80
2022-09-25T12:46:42.845Z,4.50
2022-09-25T12:47:42.833Z,6.10
2022-09-25T12:48:42.829Z,4.60
2022-09-25T12:49:42.815Z,7.00
2022-09-25T12:50:42.816Z,5.80
2022-09-25T12:51:42.788Z,5.50
2022-09-25T12:52:42.801Z,4.20
2022-09-25T12:53:42.766Z,6.60
2022-09-25T12:54:42.768Z,4.60
2022-09-25T12:55:42.748Z,4.80
2022-09-25T12:56:42.738Z,5.70
2022-09-25T12:57:42.720Z,5.30
2022-09-25T12:58:42.719Z,5.00
2022-09-25T12:59:46.356Z,4.60